Time;durP1;ratioP1;P1;durP2;ratioP2;P2;SDS_P1;SDS_P2;PMS_P1;PMS_P2;Temp;Humidity;BMP_temperature;BMP_pressure;BME280_temperature;BME280_humidity;BME280_pressure;Samples;Min_cycle;Max_cycle;Signal;HPM_P1;HPM_P2
2021/09/23 00:01:37;;;;;;;16.52;8.27;;;;;;;;;;5028855;28;20079;-60
2021/09/23 00:06:48;;;;;;;15.52;8.10;;;;;;;;;;5015017;28;20100;-60
2021/09/23 00:09:14;;;;;;;17.85;7.72;;;;;;;;;;5031434;28;20068;-60
2021/09/23 00:11:41;;;;;;;13.05;7.72;;;;;;;;;;5031466;28;20487;-60
2021/09/23 00:14:07;;;;;;;16.60;8.35;;;;;;;;;;5028638;28;20120;-60
2021/09/23 00:16:34;;;;;;;18.30;7.78;;;;;;;;;;5029873;28;20037;-59
2021/09/23 00:19:00;;;;;;;16.75;8.07;;;;;;;;;;5028735;28;20444;-60
2021/09/23 00:21:27;;;;;;;15.60;7.57;;;;;;;;;;5030117;28;20084;-60
2021/09/23 00:23:54;;;;;;;14.45;8.32;;;;;;;;;;5031052;28;20049;-60
2021/09/23 00:26:21;;;;;;;14.82;7.15;;;;;;;;;;5028461;28;20119;-60
2021/09/23 00:28:48;;;;;;;16.98;8.65;;;;;;;;;;5028261;28;20089;-60
2021/09/23 00:31:14;;;;;;;22.50;8.55;;;;;;;;;;5027680;28;20050;-60
2021/09/23 00:33:40;;;;;;;15.18;8.60;;;;;;;;;;5028379;28;20048;-60
2021/09/23 00:36:07;;;;;;;16.80;8.48;;;;;;;;;;5032201;28;20515;-59
2021/09/23 00:38:34;;;;;;;16.08;7.80;;;;;;;;;;5027492;28;20128;-59
2021/09/23 00:41:00;;;;;;;20.73;9.88;;;;;;;;;;5028264;28;20045;-60
2021/09/23 00:43:26;;;;;;;16.02;8.45;;;;;;;;;;5028304;28;20065;-60
2021/09/23 00:45:52;;;;;;;14.07;7.85;;;;;;;;;;5028691;28;20476;-59
2021/09/23 00:48:19;;;;;;;14.93;8.10;;;;;;;;;;5029308;28;20103;-60
2021/09/23 00:50:46;;;;;;;15.30;7.97;;;;;;;;;;5028549;28;20084;-60
2021/09/23 00:53:14;;;;;;;17.30;8.88;;;;;;;;;;5030042;28;20064;-60
2021/09/23 00:55:42;;;;;;;17.95;7.70;;;;;;;;;;5027269;28;20468;-60
2021/09/23 00:58:08;;;;;;;19.50;8.43;;;;;;;;;;5027492;28;20056;-59
2021/09/23 01:00:39;;;;;;;14.95;8.10;;;;;;;;;;5027444;28;20513;-60
2021/09/23 01:03:12;;;;;;;16.27;8.95;;;;;;;;;;5026697;28;20064;-60
2021/09/23 01:05:39;;;;;;;16.90;9.30;;;;;;;;;;5041529;28;20072;-60
2021/09/23 01:08:06;;;;;;;16.25;10.57;;;;;;;;;;5023594;28;20128;-60
2021/09/23 01:10:33;;;;;;;20.42;9.02;;;;;;;;;;5032718;28;20080;-60
2021/09/23 01:13:00;;;;;;;18.63;9.20;;;;;;;;;;5033808;28;20050;-60
2021/09/23 01:15:38;;;;;;;20.27;9.50;;;;;;;;;;5015384;28;20517;-60
2021/09/23 01:18:05;;;;;;;19.48;10.15;;;;;;;;;;5030583;28;20072;-60
2021/09/23 01:20:31;;;;;;;22.42;9.68;;;;;;;;;;5031079;28;20049;-60
2021/09/23 01:22:58;;;;;;;17.05;10.27;;;;;;;;;;5030971;28;20096;-60
2021/09/23 01:25:35;;;;;;;21.67;10.07;;;;;;;;;;5031709;28;20065;-60
2021/09/23 01:28:02;;;;;;;18.42;10.75;;;;;;;;;;5033869;28;20156;-60
2021/09/23 01:30:52;;;;;;;21.00;9.85;;;;;;;;;;5020019;28;20048;-59
2021/09/23 01:33:19;;;;;;;20.85;9.88;;;;;;;;;;5033417;28;20050;-59
2021/09/23 01:35:45;;;;;;;23.83;10.77;;;;;;;;;;5032429;28;20073;-59
2021/09/23 01:38:11;;;;;;;19.75;9.48;;;;;;;;;;5033810;28;20075;-60
2021/09/23 01:40:39;;;;;;;19.08;10.27;;;;;;;;;;5033712;28;20073;-60
2021/09/23 01:43:07;;;;;;;17.95;10.35;;;;;;;;;;5033403;28;20083;-60
2021/09/23 01:45:34;;;;;;;18.35;9.40;;;;;;;;;;5032707;28;20042;-60
2021/09/23 01:48:00;;;;;;;16.50;8.68;;;;;;;;;;5034528;28;20096;-60
2021/09/23 01:50:28;;;;;;;20.98;9.27;;;;;;;;;;5033499;28;20049;-60
2021/09/23 01:52:56;;;;;;;20.25;8.95;;;;;;;;;;5030946;28;20403;-60
2021/09/23 01:55:23;;;;;;;21.50;10.18;;;;;;;;;;5033420;28;20128;-60
2021/09/23 01:57:52;;;;;;;21.20;8.70;;;;;;;;;;5030956;28;20046;-60
2021/09/23 02:00:21;;;;;;;21.13;10.18;;;;;;;;;;5032827;28;20053;-59
2021/09/23 02:02:50;;;;;;;19.88;8.45;;;;;;;;;;5032043;28;20530;-60
2021/09/23 02:05:55;;;;;;;19.33;10.20;;;;;;;;;;5027703;28;20060;-60
2021/09/23 02:08:21;;;;;;;26.00;9.15;;;;;;;;;;5033173;28;20143;-59
2021/09/23 02:10:48;;;;;;;16.85;9.07;;;;;;;;;;5031486;28;20072;-59
2021/09/23 02:13:14;;;;;;;25.98;10.88;;;;;;;;;;5032915;28;20722;-60
2021/09/23 02:15:41;;;;;;;20.92;10.07;;;;;;;;;;5032251;28;20072;-60
2021/09/23 02:18:08;;;;;;;20.60;10.32;;;;;;;;;;5029354;28;20483;-59
2021/09/23 02:20:35;;;;;;;19.45;9.55;;;;;;;;;;5027911;28;20133;-59
2021/09/23 02:23:02;;;;;;;29.70;10.80;;;;;;;;;;5026060;28;20042;-59
2021/09/23 02:25:35;;;;;;;21.85;9.20;;;;;;;;;;5030391;28;20503;-59
2021/09/23 02:28:01;;;;;;;22.65;10.27;;;;;;;;;;5030327;28;20046;-60
2021/09/23 02:30:28;;;;;;;19.95;10.20;;;;;;;;;;5031717;28;20072;-59
2021/09/23 02:32:55;;;;;;;20.98;10.15;;;;;;;;;;5032262;28;20046;-60
2021/09/23 02:35:21;;;;;;;23.70;9.65;;;;;;;;;;5030879;28;20053;-60
2021/09/23 02:37:48;;;;;;;23.80;10.88;;;;;;;;;;5030335;28;20061;-59
2021/09/23 02:40:14;;;;;;;37.58;10.02;;;;;;;;;;5032490;28;20503;-60
2021/09/23 02:42:42;;;;;;;25.42;9.60;;;;;;;;;;5031435;28;20523;-59
2021/09/23 02:45:09;;;;;;;22.23;9.57;;;;;;;;;;5033648;28;20495;-59
2021/09/23 02:47:36;;;;;;;19.90;10.52;;;;;;;;;;5031695;28;20079;-60
2021/09/23 02:50:03;;;;;;;21.40;9.95;;;;;;;;;;5030049;28;20044;-59
2021/09/23 02:52:29;;;;;;;25.50;10.52;;;;;;;;;;5032429;28;20078;-59
2021/09/23 02:54:55;;;;;;;20.27;9.05;;;;;;;;;;5030036;28;20540;-59
2021/09/23 02:57:22;;;;;;;21.65;10.77;;;;;;;;;;5031452;28;20132;-60
2021/09/23 02:59:48;;;;;;;21.90;9.02;;;;;;;;;;5030995;28;20119;-59
2021/09/23 03:02:14;;;;;;;17.92;9.05;;;;;;;;;;5032173;28;20081;-60
2021/09/23 03:04:41;;;;;;;19.27;9.10;;;;;;;;;;5032342;28;20136;-60
2021/09/23 03:07:07;;;;;;;19.67;9.57;;;;;;;;;;5032131;28;20499;-59
2021/09/23 03:09:34;;;;;;;23.60;9.23;;;;;;;;;;5029946;28;20038;-59
2021/09/23 03:12:00;;;;;;;20.83;8.52;;;;;;;;;;5032028;28;20053;-60
2021/09/23 03:14:27;;;;;;;20.30;10.52;;;;;;;;;;5026651;28;20099;-59
2021/09/23 03:16:53;;;;;;;24.52;9.70;;;;;;;;;;5018696;28;20079;-60
2021/09/23 03:19:19;;;;;;;21.55;9.98;;;;;;;;;;5018463;28;20057;-60
2021/09/23 03:21:46;;;;;;;16.02;8.43;;;;;;;;;;5027993;28;20515;-59
2021/09/23 03:24:12;;;;;;;20.17;9.68;;;;;;;;;;5031253;28;20115;-59
2021/09/23 03:26:40;;;;;;;19.98;9.82;;;;;;;;;;5031925;28;20048;-60
2021/09/23 03:29:07;;;;;;;21.33;9.05;;;;;;;;;;5028681;28;20045;-59
2021/09/23 03:31:34;;;;;;;20.15;10.13;;;;;;;;;;5029510;28;20607;-59
2021/09/23 03:34:00;;;;;;;19.60;9.07;;;;;;;;;;5029349;28;20060;-60
2021/09/23 03:36:26;;;;;;;22.02;9.50;;;;;;;;;;5031585;28;20561;-59
2021/09/23 03:38:55;;;;;;;20.73;9.65;;;;;;;;;;5033565;28;20068;-60
2021/09/23 03:41:25;;;;;;;22.98;8.95;;;;;;;;;;5028635;28;20045;-60
2021/09/23 03:43:51;;;;;;;19.45;9.80;;;;;;;;;;5029635;28;20068;-60
2021/09/23 03:46:18;;;;;;;18.02;9.27;;;;;;;;;;5031256;28;20041;-59
2021/09/23 03:48:44;;;;;;;19.38;10.18;;;;;;;;;;5028894;28;20044;-60
2021/09/23 03:51:13;;;;;;;18.98;8.77;;;;;;;;;;5031731;28;20139;-61
2021/09/23 03:53:41;;;;;;;17.98;9.52;;;;;;;;;;5042634;28;20056;-60
2021/09/23 03:56:12;;;;;;;20.13;8.77;;;;;;;;;;5041038;28;20041;-59
2021/09/23 03:58:43;;;;;;;18.70;8.57;;;;;;;;;;5031165;28;20076;-60
2021/09/23 04:01:10;;;;;;;21.00;9.45;;;;;;;;;;5030156;28;20045;-60
2021/09/23 04:03:37;;;;;;;15.20;8.88;;;;;;;;;;5028730;28;20088;-60
2021/09/23 04:06:03;;;;;;;13.75;6.50;;;;;;;;;;5031787;28;20119;-59
2021/09/23 04:08:30;;;;;;;17.38;8.05;;;;;;;;;;5030916;28;20075;-59
2021/09/23 04:10:57;;;;;;;24.25;9.48;;;;;;;;;;5030918;28;20048;-60
2021/09/23 04:13:23;;;;;;;18.55;8.60;;;;;;;;;;5030755;28;20081;-60
2021/09/23 04:15:52;;;;;;;15.15;7.93;;;;;;;;;;5028970;28;20136;-60
2021/09/23 04:18:18;;;;;;;20.67;9.10;;;;;;;;;;5030159;28;20590;-59
2021/09/23 04:20:48;;;;;;;22.45;8.65;;;;;;;;;;5029310;28;20123;-59
2021/09/23 04:23:15;;;;;;;17.73;8.45;;;;;;;;;;5030441;28;20557;-60
2021/09/23 04:25:42;;;;;;;16.20;8.70;;;;;;;;;;5030507;28;20107;-60
2021/09/23 04:28:09;;;;;;;26.90;10.80;;;;;;;;;;5028113;28;20077;-59
2021/09/23 04:30:35;;;;;;;19.30;9.38;;;;;;;;;;5029840;28;20495;-60
2021/09/23 04:33:01;;;;;;;16.02;7.97;;;;;;;;;;5028683;28;20492;-59
2021/09/23 04:35:29;;;;;;;20.77;8.77;;;;;;;;;;5034528;28;20459;-59
2021/09/23 04:37:55;;;;;;;24.05;9.07;;;;;;;;;;5027248;28;20099;-59
2021/09/23 04:40:22;;;;;;;19.08;8.38;;;;;;;;;;5040406;28;20128;-59
2021/09/23 04:42:48;;;;;;;16.52;8.63;;;;;;;;;;5026827;28;20085;-59
2021/09/23 04:45:14;;;;;;;18.67;8.20;;;;;;;;;;5021719;28;20042;-60
2021/09/23 04:47:43;;;;;;;15.43;8.07;;;;;;;;;;5034447;28;20041;-59
2021/09/23 04:50:10;;;;;;;18.58;9.55;;;;;;;;;;5027154;28;20129;-59
2021/09/23 04:52:36;;;;;;;22.35;8.82;;;;;;;;;;5037294;28;20045;-59
2021/09/23 04:55:05;;;;;;;16.90;9.23;;;;;;;;;;5024733;28;20050;-59
2021/09/23 04:57:33;;;;;;;16.20;9.07;;;;;;;;;;5024777;28;20081;-60
2021/09/23 05:00:03;;;;;;;20.30;9.38;;;;;;;;;;5018119;28;20048;-59
2021/09/23 05:02:31;;;;;;;16.48;8.50;;;;;;;;;;5026098;28;20535;-60
2021/09/23 05:04:58;;;;;;;12.52;7.35;;;;;;;;;;5024074;28;20100;-60
2021/09/23 05:07:24;;;;;;;21.45;9.00;;;;;;;;;;5027786;28;20045;-59
2021/09/23 05:09:51;;;;;;;24.20;9.25;;;;;;;;;;5037986;28;20033;-59
2021/09/23 05:12:20;;;;;;;21.13;9.55;;;;;;;;;;5033621;28;20045;-59
2021/09/23 05:14:46;;;;;;;19.95;9.80;;;;;;;;;;5030955;28;20047;-59
2021/09/23 05:17:13;;;;;;;18.98;10.48;;;;;;;;;;5017699;28;20064;-59
2021/09/23 05:19:39;;;;;;;15.07;7.43;;;;;;;;;;5015358;28;20076;-60
2021/09/23 05:22:05;;;;;;;24.15;10.40;;;;;;;;;;5028886;28;20050;-59
2021/09/23 05:24:31;;;;;;;15.57;8.68;;;;;;;;;;5029603;28;20053;-59
2021/09/23 05:26:58;;;;;;;24.13;11.00;;;;;;;;;;5029189;28;20072;-60
2021/09/23 05:29:24;;;;;;;21.88;9.98;;;;;;;;;;5020396;28;20071;-59
2021/09/23 05:31:52;;;;;;;26.38;10.35;;;;;;;;;;5024960;28;20045;-60
2021/09/23 05:34:19;;;;;;;19.83;9.68;;;;;;;;;;5027585;28;20119;-59
2021/09/23 05:36:45;;;;;;;28.17;11.82;;;;;;;;;;5027591;28;20172;-59
2021/09/23 05:39:11;;;;;;;26.33;10.35;;;;;;;;;;5030053;28;20057;-59
2021/09/23 05:41:41;;;;;;;20.58;11.13;;;;;;;;;;5029914;28;20061;-59
2021/09/23 05:44:10;;;;;;;23.20;11.07;;;;;;;;;;5027645;28;20080;-59
2021/09/23 05:46:37;;;;;;;17.05;9.55;;;;;;;;;;5030191;28;20045;-59
2021/09/23 05:49:05;;;;;;;21.83;10.25;;;;;;;;;;5027892;28;20132;-60
2021/09/23 05:51:32;;;;;;;24.27;10.63;;;;;;;;;;5028957;28;20049;-59
2021/09/23 05:53:58;;;;;;;20.42;10.45;;;;;;;;;;5030411;28;20042;-59
2021/09/23 05:56:24;;;;;;;21.52;10.70;;;;;;;;;;5028804;28;20077;-60
2021/09/23 05:58:50;;;;;;;21.65;9.05;;;;;;;;;;5031450;28;20045;-59
2021/09/23 06:01:17;;;;;;;22.55;9.65;;;;;;;;;;5031199;28;20121;-59
2021/09/23 06:03:43;;;;;;;25.13;11.35;;;;;;;;;;5031410;28;20088;-59
2021/09/23 06:06:09;;;;;;;21.75;10.43;;;;;;;;;;5033243;28;20045;-60
2021/09/23 06:08:35;;;;;;;20.92;9.80;;;;;;;;;;5029831;28;20056;-60
2021/09/23 06:11:02;;;;;;;23.13;11.15;;;;;;;;;;5025229;28;20195;-59
2021/09/23 06:13:29;;;;;;;24.73;10.48;;;;;;;;;;5025062;28;20042;-60
2021/09/23 06:15:55;;;;;;;23.38;11.00;;;;;;;;;;5035489;28;20053;-60
2021/09/23 06:18:21;;;;;;;28.17;12.13;;;;;;;;;;5027081;28;20159;-60
2021/09/23 06:20:49;;;;;;;20.63;10.27;;;;;;;;;;5030827;28;20077;-59
2021/09/23 06:23:15;;;;;;;30.27;11.70;;;;;;;;;;5029957;28;20053;-59
2021/09/23 06:25:42;;;;;;;19.45;9.68;;;;;;;;;;5031660;28;20045;-60
2021/09/23 06:28:09;;;;;;;25.40;11.38;;;;;;;;;;5029574;28;20072;-59
2021/09/23 06:30:35;;;;;;;21.30;10.90;;;;;;;;;;5039909;28;20050;-59
2021/09/23 06:33:01;;;;;;;23.15;11.00;;;;;;;;;;5037389;28;20063;-59
2021/09/23 06:35:27;;;;;;;25.35;10.73;;;;;;;;;;5031149;28;20075;-60
2021/09/23 06:37:54;;;;;;;19.52;9.80;;;;;;;;;;5037534;28;20042;-59
2021/09/23 06:40:20;;;;;;;24.90;10.65;;;;;;;;;;5031692;28;20085;-60
2021/09/23 06:42:48;;;;;;;20.02;11.00;;;;;;;;;;5030419;28;20042;-59
2021/09/23 06:45:14;;;;;;;22.38;11.77;;;;;;;;;;5037715;28;20517;-58
2021/09/23 06:47:41;;;;;;;28.25;12.68;;;;;;;;;;5032308;28;20768;-59
2021/09/23 06:50:08;;;;;;;34.15;12.20;;;;;;;;;;5029909;28;20117;-60
2021/09/23 06:52:34;;;;;;;28.35;11.70;;;;;;;;;;5035429;28;20246;-59
2021/09/23 06:55:00;;;;;;;25.38;12.30;;;;;;;;;;5037608;28;20085;-60
2021/09/23 06:57:27;;;;;;;28.45;12.10;;;;;;;;;;5027627;28;20045;-60
2021/09/23 07:00:12;;;;;;;29.05;12.05;;;;;;;;;;5028628;28;20052;-59
2021/09/23 07:03:01;;;;;;;24.85;11.20;;;;;;;;;;5029402;28;20049;-60
2021/09/23 07:05:35;;;;;;;34.67;11.93;;;;;;;;;;5030122;28;20069;-60
2021/09/23 07:08:01;;;;;;;26.95;11.75;;;;;;;;;;5021694;28;20042;-59
2021/09/23 07:10:27;;;;;;;21.10;10.00;;;;;;;;;;5035257;28;20041;-60
2021/09/23 07:12:55;;;;;;;15.57;8.80;;;;;;;;;;5035945;28;20065;-59
2021/09/23 07:15:21;;;;;;;28.38;12.90;;;;;;;;;;5036095;28;20428;-60
2021/09/23 07:17:47;;;;;;;19.25;11.27;;;;;;;;;;5028134;28;20431;-60
2021/09/23 07:20:14;;;;;;;24.92;12.13;;;;;;;;;;5024965;28;20095;-59
2021/09/23 07:22:42;;;;;;;29.00;12.75;;;;;;;;;;5030750;28;20070;-59
2021/09/23 07:25:08;;;;;;;23.90;10.95;;;;;;;;;;5037782;28;20515;-59
2021/09/23 07:27:35;;;;;;;24.98;12.30;;;;;;;;;;5026626;28;20053;-59
2021/09/23 07:30:01;;;;;;;20.95;11.32;;;;;;;;;;5040310;28;20095;-59
2021/09/23 07:32:27;;;;;;;27.02;11.38;;;;;;;;;;5031905;28;20045;-59
2021/09/23 07:34:54;;;;;;;21.60;10.73;;;;;;;;;;5028838;28;20129;-59
2021/09/23 07:37:20;;;;;;;22.90;10.80;;;;;;;;;;5038292;28;20041;-59
2021/09/23 07:39:46;;;;;;;24.52;10.65;;;;;;;;;;5033344;28;20045;-59
2021/09/23 07:42:15;;;;;;;20.77;8.40;;;;;;;;;;5037045;28;20111;-60
2021/09/23 07:44:42;;;;;;;19.63;9.27;;;;;;;;;;5022852;28;20050;-60
2021/09/23 07:47:08;;;;;;;25.67;12.30;;;;;;;;;;5025111;28;20047;-59
2021/09/23 07:49:35;;;;;;;18.60;10.60;;;;;;;;;;5027383;28;20148;-60
2021/09/23 07:52:01;;;;;;;19.80;10.10;;;;;;;;;;5018686;28;20060;-59
2021/09/23 07:54:27;;;;;;;22.45;10.48;;;;;;;;;;5025675;28;20037;-59
2021/09/23 07:56:54;;;;;;;22.02;9.80;;;;;;;;;;5024948;28;20096;-60
2021/09/23 07:59:21;;;;;;;22.92;11.25;;;;;;;;;;5021419;28;20128;-60
2021/09/23 08:01:48;;;;;;;25.88;10.00;;;;;;;;;;5023631;28;20043;-58
2021/09/23 08:04:15;;;;;;;18.50;10.63;;;;;;;;;;5027543;28;20073;-60
2021/09/23 08:06:42;;;;;;;20.40;9.98;;;;;;;;;;5025799;28;20487;-60
2021/09/23 08:09:08;;;;;;;22.67;9.95;;;;;;;;;;5026090;28;20120;-60
2021/09/23 08:11:35;;;;;;;21.83;10.48;;;;;;;;;;5026737;28;20139;-60
2021/09/23 08:14:16;;;;;;;20.02;8.30;;;;;;;;;;5024612;28;20052;-60
2021/09/23 08:16:43;;;;;;;16.45;9.90;;;;;;;;;;5025918;28;20121;-60
2021/09/23 08:19:30;;;;;;;16.30;8.25;;;;;;;;;;5022742;28;20415;-60
2021/09/23 08:22:00;;;;;;;21.20;9.07;;;;;;;;;;5028162;28;20072;-60
2021/09/23 08:24:26;;;;;;;22.83;9.77;;;;;;;;;;5027958;28;20045;-60
2021/09/23 08:26:53;;;;;;;21.00;9.20;;;;;;;;;;5027272;28;20083;-60
2021/09/23 08:29:19;;;;;;;15.32;8.05;;;;;;;;;;5021745;28;20069;-60
2021/09/23 08:31:46;;;;;;;17.42;8.68;;;;;;;;;;5016887;28;20046;-60
2021/09/23 08:34:12;;;;;;;20.17;7.68;;;;;;;;;;5030607;28;20050;-60
2021/09/23 08:36:39;;;;;;;26.30;7.75;;;;;;;;;;5033890;28;20534;-59
2021/09/23 08:39:08;;;;;;;21.05;8.13;;;;;;;;;;5026615;28;20099;-58
2021/09/23 08:41:34;;;;;;;26.15;9.27;;;;;;;;;;5026581;28;20052;-59
2021/09/23 08:44:01;;;;;;;16.75;9.07;;;;;;;;;;5028915;28;20081;-60
2021/09/23 08:46:31;;;;;;;19.90;8.32;;;;;;;;;;5026540;28;20092;-60
2021/09/23 08:48:58;;;;;;;22.25;9.98;;;;;;;;;;5042626;28;20511;-60
2021/09/23 08:51:32;;;;;;;13.65;7.07;;;;;;;;;;5026319;28;20084;-60
2021/09/23 08:53:58;;;;;;;19.00;8.18;;;;;;;;;;5026010;28;20053;-60
2021/09/23 08:56:26;;;;;;;22.17;8.90;;;;;;;;;;5027881;28;20634;-60
2021/09/23 08:58:53;;;;;;;14.25;8.13;;;;;;;;;;5027363;28;20077;-60
2021/09/23 09:01:21;;;;;;;19.92;8.45;;;;;;;;;;5024975;28;20061;-59
2021/09/23 09:04:00;;;;;;;17.67;8.00;;;;;;;;;;5025682;28;20503;-60
2021/09/23 09:06:50;;;;;;;17.48;7.63;;;;;;;;;;5016113;28;20519;-60
2021/09/23 09:09:37;;;;;;;19.70;8.55;;;;;;;;;;5027940;28;20120;-60
2021/09/23 09:12:03;;;;;;;16.63;7.80;;;;;;;;;;5030005;28;20041;-60
2021/09/23 09:14:30;;;;;;;12.30;6.60;;;;;;;;;;5028828;28;20045;-60
2021/09/23 09:17:01;;;;;;;15.10;7.10;;;;;;;;;;5029535;28;20081;-60
2021/09/23 09:19:41;;;;;;;20.00;7.07;;;;;;;;;;5029377;28;20565;-60
2021/09/23 09:22:15;;;;;;;14.75;6.47;;;;;;;;;;5029200;28;20075;-60
2021/09/23 09:24:53;;;;;;;14.80;6.07;;;;;;;;;;5013483;28;20042;-60
2021/09/23 09:27:26;;;;;;;12.82;6.88;;;;;;;;;;5025313;28;20056;-60
2021/09/23 09:29:57;;;;;;;11.93;6.00;;;;;;;;;;5028874;28;20045;-60
2021/09/23 09:32:37;;;;;;;11.77;5.07;;;;;;;;;;5031861;28;20065;-59
2021/09/23 09:35:04;;;;;;;9.57;4.65;;;;;;;;;;5033302;28;20095;-60
2021/09/23 09:37:32;;;;;;;12.88;5.72;;;;;;;;;;5031009;28;20080;-60
2021/09/23 09:39:58;;;;;;;11.90;5.93;;;;;;;;;;5033248;28;20045;-59
2021/09/23 09:42:28;;;;;;;17.88;5.45;;;;;;;;;;5032361;28;20500;-59
2021/09/23 09:44:58;;;;;;;9.93;4.60;;;;;;;;;;5048838;28;20081;-59
2021/09/23 09:47:35;;;;;;;14.93;5.25;;;;;;;;;;5032509;28;20088;-59
2021/09/23 09:50:12;;;;;;;9.75;4.10;;;;;;;;;;5027790;28;20132;-59
2021/09/23 09:52:39;;;;;;;13.90;5.47;;;;;;;;;;5031759;28;20049;-59
2021/09/23 09:55:07;;;;;;;7.95;3.60;;;;;;;;;;5033354;28;20549;-59
2021/09/23 09:57:33;;;;;;;12.00;4.47;;;;;;;;;;5030952;28;20041;-60
2021/09/23 10:00:00;;;;;;;19.33;3.78;;;;;;;;;;5032594;28;20056;-59
2021/09/23 10:02:28;;;;;;;8.90;4.32;;;;;;;;;;5030551;28;20069;-60
2021/09/23 10:04:58;;;;;;;9.90;4.03;;;;;;;;;;5032643;28;20049;-60
2021/09/23 10:07:27;;;;;;;8.63;3.92;;;;;;;;;;5032343;28;20046;-60
2021/09/23 10:09:56;;;;;;;11.13;3.65;;;;;;;;;;5032566;28;20068;-59
2021/09/23 10:12:26;;;;;;;7.53;3.90;;;;;;;;;;5032203;28;20142;-59
2021/09/23 10:14:53;;;;;;;13.27;4.22;;;;;;;;;;5033114;28;20418;-59
2021/09/23 10:17:22;;;;;;;6.43;3.75;;;;;;;;;;5032228;28;20511;-59
2021/09/23 10:19:48;;;;;;;7.25;3.63;;;;;;;;;;5029914;28;20376;-59
2021/09/23 10:22:15;;;;;;;5.97;2.80;;;;;;;;;;5032789;28;20049;-59
2021/09/23 10:24:43;;;;;;;5.60;2.97;;;;;;;;;;5014606;28;20117;-61
2021/09/23 10:29:59;;;;;;;4.32;3.03;;;;;;;;;;5032326;28;20045;-60
2021/09/23 10:32:25;;;;;;;5.55;3.33;;;;;;;;;;5032622;28;20104;-60
2021/09/23 10:34:52;;;;;;;6.65;2.95;;;;;;;;;;5032545;28;20049;-60
2021/09/23 10:37:22;;;;;;;9.45;3.58;;;;;;;;;;5030327;28;20088;-61
2021/09/23 10:39:48;;;;;;;14.00;4.35;;;;;;;;;;5030095;28;20042;-60
2021/09/23 10:42:20;;;;;;;9.25;3.55;;;;;;;;;;5031664;28;20050;-60
2021/09/23 10:44:51;;;;;;;8.73;4.05;;;;;;;;;;5032226;28;20522;-60
2021/09/23 10:47:26;;;;;;;7.38;3.45;;;;;;;;;;5032292;28;20057;-60
2021/09/23 10:49:52;;;;;;;9.63;4.47;;;;;;;;;;5031895;28;20065;-60
2021/09/23 10:52:22;;;;;;;6.38;3.08;;;;;;;;;;5032324;28;20050;-59
2021/09/23 10:54:51;;;;;;;10.63;3.70;;;;;;;;;;5029594;28;20077;-59
2021/09/23 10:57:18;;;;;;;6.75;3.53;;;;;;;;;;5032814;28;20456;-59
2021/09/23 10:59:46;;;;;;;7.53;3.47;;;;;;;;;;5029570;28;20120;-59
2021/09/23 11:02:23;;;;;;;7.68;2.88;;;;;;;;;;5031093;28;20046;-59
2021/09/23 11:04:54;;;;;;;11.68;3.95;;;;;;;;;;5029591;28;20061;-60
2021/09/23 11:07:20;;;;;;;9.45;3.70;;;;;;;;;;5031660;28;20037;-59
2021/09/23 11:10:05;;;;;;;8.85;4.20;;;;;;;;;;5031377;28;20053;-59
2021/09/23 11:12:32;;;;;;;6.85;3.53;;;;;;;;;;5031896;28;20104;-59
2021/09/23 11:15:00;;;;;;;6.97;3.78;;;;;;;;;;5031753;28;20050;-60
2021/09/23 11:17:27;;;;;;;9.90;3.83;;;;;;;;;;5031711;28;20053;-60
2021/09/23 11:19:56;;;;;;;6.97;3.08;;;;;;;;;;5031792;28;20499;-60
2021/09/23 11:22:33;;;;;;;5.68;3.30;;;;;;;;;;5031798;28;20508;-60
2021/09/23 11:25:01;;;;;;;7.07;3.38;;;;;;;;;;5031504;28;20073;-60
2021/09/23 11:27:27;;;;;;;12.77;3.75;;;;;;;;;;5030973;28;20045;-60
2021/09/23 11:29:58;;;;;;;9.30;3.40;;;;;;;;;;5032862;28;20048;-60
2021/09/23 11:32:24;;;;;;;8.30;3.90;;;;;;;;;;5029195;28;20053;-60
2021/09/23 11:34:56;;;;;;;13.15;3.83;;;;;;;;;;5031439;28;20046;-60
2021/09/23 11:37:28;;;;;;;7.05;3.50;;;;;;;;;;5031391;28;20621;-60
2021/09/23 11:39:57;;;;;;;6.40;3.25;;;;;;;;;;5029028;28;20057;-59
2021/09/23 11:42:31;;;;;;;11.18;3.80;;;;;;;;;;5029511;28;20045;-60
2021/09/23 11:45:05;;;;;;;7.00;3.60;;;;;;;;;;5032131;28;20566;-60
2021/09/23 11:47:32;;;;;;;8.15;4.15;;;;;;;;;;5031325;28;20128;-60
2021/09/23 11:49:58;;;;;;;12.40;4.40;;;;;;;;;;5030257;28;20038;-60
2021/09/23 11:52:30;;;;;;;9.07;4.07;;;;;;;;;;5028137;28;20065;-60
2021/09/23 11:55:00;;;;;;;11.50;4.13;;;;;;;;;;5028013;28;20041;-59
2021/09/23 11:57:28;;;;;;;10.82;3.70;;;;;;;;;;5030071;28;20081;-58
2021/09/23 11:59:56;;;;;;;10.52;4.38;;;;;;;;;;5030088;28;20099;-58
2021/09/23 12:02:22;;;;;;;9.52;3.67;;;;;;;;;;5027604;28;20053;-58
2021/09/23 12:04:53;;;;;;;6.63;3.42;;;;;;;;;;5030863;28;20506;-58
2021/09/23 12:07:21;;;;;;;7.32;4.20;;;;;;;;;;5030505;28;20487;-59
2021/09/23 12:10:01;;;;;;;11.77;4.47;;;;;;;;;;5030276;28;20049;-58
2021/09/23 12:12:30;;;;;;;8.32;3.85;;;;;;;;;;5029775;28;20054;-59
2021/09/23 12:14:56;;;;;;;16.13;4.47;;;;;;;;;;5030996;28;20045;-59
2021/09/23 12:17:23;;;;;;;9.23;3.72;;;;;;;;;;5027905;28;20071;-59
2021/09/23 12:19:54;;;;;;;11.50;3.97;;;;;;;;;;5030534;28;20535;-60
2021/09/23 12:22:31;;;;;;;9.95;4.95;;;;;;;;;;5030282;28;20496;-58
2021/09/23 12:24:58;;;;;;;9.52;4.47;;;;;;;;;;5028963;28;20074;-59
2021/09/23 12:27:27;;;;;;;7.72;3.65;;;;;;;;;;5013416;28;20491;-58
2021/09/23 12:29:55;;;;;;;9.15;4.70;;;;;;;;;;5029350;28;20045;-59
2021/09/23 12:32:35;;;;;;;11.27;4.80;;;;;;;;;;5028020;28;20088;-60
2021/09/23 12:35:16;;;;;;;10.40;4.50;;;;;;;;;;5028128;28;20049;-60
2021/09/23 12:37:42;;;;;;;10.40;4.78;;;;;;;;;;5030190;28;20125;-59
2021/09/23 12:40:19;;;;;;;8.73;4.72;;;;;;;;;;5027678;28;20487;-59
2021/09/23 12:42:47;;;;;;;12.65;4.85;;;;;;;;;;5027916;28;20057;-60
2021/09/23 12:45:20;;;;;;;12.95;4.93;;;;;;;;;;5029680;28;20085;-60
2021/09/23 12:47:46;;;;;;;11.75;5.00;;;;;;;;;;5028137;28;20053;-59
2021/09/23 12:50:16;;;;;;;12.57;5.47;;;;;;;;;;5029822;28;20139;-59
2021/09/23 12:52:44;;;;;;;18.83;5.13;;;;;;;;;;5027733;28;20042;-60
2021/09/23 12:55:26;;;;;;;12.73;5.47;;;;;;;;;;5030197;28;20095;-59
2021/09/23 12:57:57;;;;;;;11.20;6.00;;;;;;;;;;5014109;28;20550;-59
2021/09/23 13:00:34;;;;;;;8.63;4.82;;;;;;;;;;5028800;28;20427;-59
2021/09/23 13:03:06;;;;;;;14.15;5.70;;;;;;;;;;5030276;28;20053;-58
2021/09/23 13:05:34;;;;;;;15.05;5.05;;;;;;;;;;5029530;28;20132;-59
2021/09/23 13:08:08;;;;;;;13.63;5.78;;;;;;;;;;5031448;28;20099;-59
2021/09/23 13:10:35;;;;;;;9.90;4.45;;;;;;;;;;5033111;28;20041;-59
2021/09/23 13:13:02;;;;;;;7.80;4.78;;;;;;;;;;5033872;28;20048;-59
2021/09/23 13:15:39;;;;;;;10.60;6.15;;;;;;;;;;5033886;28;20041;-59
2021/09/23 13:18:05;;;;;;;8.93;5.50;;;;;;;;;;5034236;28;20510;-58
2021/09/23 13:20:35;;;;;;;9.93;5.30;;;;;;;;;;5033125;28;20052;-58
2021/09/23 13:23:25;;;;;;;15.85;6.10;;;;;;;;;;5031984;28;20054;-59
2021/09/23 13:25:59;;;;;;;15.07;5.80;;;;;;;;;;5033925;28;20076;-58
2021/09/23 13:28:30;;;;;;;8.77;5.95;;;;;;;;;;5031298;28;20072;-60
2021/09/23 13:30:58;;;;;;;9.85;5.57;;;;;;;;;;5033764;28;20400;-58
2021/09/23 13:33:28;;;;;;;11.18;5.72;;;;;;;;;;5033057;28;20103;-58
2021/09/23 13:35:54;;;;;;;10.82;5.05;;;;;;;;;;5045610;28;20133;-58
2021/09/23 13:38:22;;;;;;;12.88;6.57;;;;;;;;;;5028778;28;20080;-59
2021/09/23 13:40:49;;;;;;;13.82;5.68;;;;;;;;;;5031765;28;20072;-59
2021/09/23 13:43:16;;;;;;;10.90;5.68;;;;;;;;;;5033278;28;20107;-58
2021/09/23 13:45:49;;;;;;;11.50;5.95;;;;;;;;;;5033104;28;20503;-59
2021/09/23 13:48:15;;;;;;;9.15;4.90;;;;;;;;;;5034585;28;20045;-58
2021/09/23 13:50:43;;;;;;;10.00;5.15;;;;;;;;;;5031676;28;20068;-58
2021/09/23 13:53:09;;;;;;;10.25;5.18;;;;;;;;;;5033517;28;20045;-57
2021/09/23 13:55:37;;;;;;;9.27;4.97;;;;;;;;;;5030631;28;20092;-59
2021/09/23 13:58:08;;;;;;;11.38;5.47;;;;;;;;;;5032693;28;20103;-58
2021/09/23 14:00:35;;;;;;;15.38;6.38;;;;;;;;;;5020603;28;20046;-59
2021/09/23 14:03:03;;;;;;;14.55;4.53;;;;;;;;;;5041297;28;20080;-60
2021/09/23 14:05:42;;;;;;;13.20;6.30;;;;;;;;;;5032056;28;20046;-59
2021/09/23 14:08:12;;;;;;;9.20;5.93;;;;;;;;;;5032313;28;20077;-59
2021/09/23 14:10:39;;;;;;;8.93;5.47;;;;;;;;;;5027770;28;20405;-59
2021/09/23 14:13:12;;;;;;;7.60;5.53;;;;;;;;;;5029668;28;20451;-60
2021/09/23 14:15:38;;;;;;;17.33;6.78;;;;;;;;;;5029718;28;20064;-59
2021/09/23 14:18:05;;;;;;;11.93;6.25;;;;;;;;;;5029423;28;20042;-60
2021/09/23 14:20:33;;;;;;;16.95;5.63;;;;;;;;;;5031986;28;20084;-58
2021/09/23 14:22:59;;;;;;;12.40;6.35;;;;;;;;;;5029723;28;20495;-58
2021/09/23 14:25:26;;;;;;;12.25;6.32;;;;;;;;;;5030537;28;20041;-59
2021/09/23 14:27:52;;;;;;;13.55;5.10;;;;;;;;;;5028542;28;20434;-59
2021/09/23 14:30:18;;;;;;;11.02;7.07;;;;;;;;;;5040162;28;20055;-58
2021/09/23 14:32:45;;;;;;;12.45;6.72;;;;;;;;;;5028023;28;20041;-58
2021/09/23 14:35:12;;;;;;;10.60;6.82;;;;;;;;;;5029639;28;20120;-58
2021/09/23 14:37:39;;;;;;;17.15;6.53;;;;;;;;;;5029233;28;20046;-59
2021/09/23 14:40:06;;;;;;;12.05;6.50;;;;;;;;;;5030249;28;20558;-59
2021/09/23 14:42:33;;;;;;;11.70;6.30;;;;;;;;;;5029139;28;20215;-59